»·PEaware :: SWA1492 KSNA-KLAS

SWA1492 :: KSNA-KLAS

FLIGHT INFORMATION

Flight Status: Arrived
Operator:
Southwest Airlines
More flights by this operator :: More flights under this callsign
Pilot: Drew L. (13237)
Aircraft: BOEING 737-700
(B737)
More flights by this aircraft type
Origin: KSNA John Wayne-Orange Co
United States
Destination: KLAS McCarran Intl
United States
More flights between these airports :: More routes between these airports
Route: +FINZZ2 MISEN KEPEC6
File this flight plan on PilotEdge
Remarks:
Altitude:
(Current/Filed)
29,000ft
Speed:
(Current/Filed)
457kts
Departed: 09-Sep-20 09:12 PM
Arrived: 09-Sep-20 09:54 PM
Distance/Time
Traveled:
197nm/0:42
Distance/Time
To Go:
Arrived

Flight Plot

Page will automatically refresh every two minutes.

Flight plan parsing failed; only flown route is shown


Map Options




Map Legend


Flown Route
Filed Route
Departure Airport
Arrival Airport
Navaid (VOR, NDB)
Fix

Horizontal Profiles

Position Reports

Time Latitude Longitude Heading Altitude Ground
Speed
09-Sep-20 20:40 33.676748 -117.864000 117 64ft 0kts
09-Sep-20 20:41 33.676748 -117.864000 117 64ft 0kts
09-Sep-20 20:42 33.676748 -117.864000 117 64ft 0kts
09-Sep-20 20:43 33.676748 -117.864000 117 64ft 0kts
09-Sep-20 20:43 33.676748 -117.864000 117 64ft 0kts
09-Sep-20 20:45 33.676748 -117.864000 117 64ft 0kts
09-Sep-20 20:45 33.676748 -117.864000 117 64ft 0kts
09-Sep-20 20:46 33.676748 -117.864000 117 64ft 0kts
09-Sep-20 20:47 33.676748 -117.864000 117 64ft 0kts
09-Sep-20 20:48 33.676748 -117.864000 117 64ft 0kts
09-Sep-20 20:49 33.676748 -117.864000 117 64ft 0kts
09-Sep-20 20:50 33.676748 -117.864000 117 64ft 0kts
09-Sep-20 20:51 33.676748 -117.864000 117 64ft 0kts
09-Sep-20 20:52 33.676748 -117.864000 117 64ft 0kts
09-Sep-20 20:53 33.676748 -117.864000 117 64ft 0kts
09-Sep-20 20:54 33.676748 -117.864000 117 64ft 0kts
09-Sep-20 20:55 33.676748 -117.864000 117 64ft 0kts
09-Sep-20 20:56 33.676748 -117.864000 117 64ft 0kts
09-Sep-20 20:57 33.676748 -117.864000 117 64ft 0kts
09-Sep-20 20:58 33.676748 -117.864000 117 64ft 0kts
09-Sep-20 20:59 33.676748 -117.864000 117 64ft 0kts
09-Sep-20 21:00 33.676748 -117.864000 117 64ft 0kts
09-Sep-20 21:01 33.676748 -117.864000 117 64ft 0kts
09-Sep-20 21:02 33.676862 -117.864263 117 64ft 2kts
09-Sep-20 21:03 33.676784 -117.864770 26 64ft 1kts
09-Sep-20 21:04 33.676732 -117.864798 26 64ft 0kts
09-Sep-20 21:05 33.676732 -117.864798 26 64ft 0kts
09-Sep-20 21:06 33.676868 -117.864707 29 64ft 7kts
09-Sep-20 21:07 33.680649 -117.863063 301 64ft 14kts
09-Sep-20 21:08 33.681151 -117.864186 297 64ft 0kts
09-Sep-20 21:09 33.681158 -117.864201 297 64ft 1kts
09-Sep-20 21:10 33.681317 -117.865261 207 64ft 0kts
09-Sep-20 21:11 33.666492 -117.874806 209 959ft 127kts
09-Sep-20 21:12 33.623947 -117.890721 192 3163ft 198kts
09-Sep-20 21:13 33.561763 -117.914573 216 6033ft 271kts
09-Sep-20 21:14 33.508758 -117.982605 253 7934ft 280kts
09-Sep-20 21:15 33.531542 -118.066649 311 7937ft 277kts
09-Sep-20 21:16 33.601211 -118.105864 359 11563ft 292kts
09-Sep-20 21:17 33.680046 -118.077035 25 14700ft 321kts
09-Sep-20 21:18 33.768569 -118.025324 25 16795ft 375kts
09-Sep-20 21:19 33.864312 -117.969418 25 19722ft 393kts
09-Sep-20 21:20 33.958216 -117.897830 36 22379ft 411kts
09-Sep-20 21:21 34.050152 -117.813248 35 22960ft 413kts
09-Sep-20 21:22 34.134659 -117.714780 46 25166ft 431kts
09-Sep-20 21:23 34.215936 -117.606579 46 27559ft 440kts
09-Sep-20 21:24 34.297672 -117.497391 45 28996ft 432kts
09-Sep-20 21:25 34.379468 -117.387836 45 29048ft 454kts
09-Sep-20 21:26 34.465897 -117.271695 46 29043ft 478kts
09-Sep-20 21:27 34.555365 -117.151011 46 29053ft 481kts
09-Sep-20 21:28 34.644626 -117.030173 45 29046ft 482kts
09-Sep-20 21:29 34.734318 -116.908337 44 29018ft 485kts
09-Sep-20 21:30 34.824295 -116.785683 44 29007ft 487kts
09-Sep-20 21:31 34.914277 -116.662575 44 29007ft 486kts
09-Sep-20 21:32 35.002559 -116.541200 43 27034ft 461kts
09-Sep-20 21:33 35.086086 -116.426232 43 24801ft 444kts
09-Sep-20 21:34 35.170054 -116.319137 41 24034ft 439kts
09-Sep-20 21:35 35.255822 -116.211657 41 24027ft 436kts
09-Sep-20 21:36 35.337008 -116.109480 41 21843ft 408kts
09-Sep-20 21:37 35.414840 -116.011249 41 18784ft 390kts
09-Sep-20 21:38 35.488813 -115.917559 42 15825ft 374kts
09-Sep-20 21:39 35.559427 -115.827964 42 13084ft 353kts
09-Sep-20 21:40 35.628576 -115.740242 42 12978ft 358kts
09-Sep-20 21:41 35.697805 -115.651705 42 12998ft 357kts
09-Sep-20 21:42 35.776507 -115.584485 16 12992ft 310kts
09-Sep-20 21:43 35.854514 -115.570083 1 12998ft 276kts
09-Sep-20 21:44 35.931339 -115.560744 16 12562ft 278kts
09-Sep-20 21:45 35.988964 -115.499851 56 11557ft 285kts
09-Sep-20 21:46 36.019761 -115.411178 63 10964ft 266kts
09-Sep-20 21:47 36.027149 -115.321443 89 10015ft 265kts
09-Sep-20 21:48 36.020730 -115.232611 90 9086ft 244kts
09-Sep-20 21:49 36.015375 -115.156373 90 8074ft 204kts
09-Sep-20 21:50 36.013656 -115.090302 65 6184ft 187kts
09-Sep-20 21:51 36.056419 -115.067989 353 4222ft 165kts
09-Sep-20 21:52 36.073758 -115.114226 270 2398ft 165kts
09-Sep-20 21:53 36.074561 -115.145479 300 2186ft 24kts
09-Sep-20 21:54 36.074786 -115.145974 297 2186ft 0kts
09-Sep-20 21:55 36.074786 -115.145974 297 2186ft 0kts
09-Sep-20 21:56 36.074786 -115.145974 297 2186ft 0kts

Navigation Log

Ident Type
Flight plan parsing failed, navigation log unavailable